sensor_id;sensor_type;location;lat;lon;timestamp;P1;durP1;ratioP1;P2;durP2;ratioP2
41719;SDS011;27405;53.316;-6.294;2023-07-02T00:01:18;26.02;;;6.13;;
41719;SDS011;27405;53.316;-6.294;2023-07-02T00:03:44;22.00;;;6.05;;
41719;SDS011;27405;53.316;-6.294;2023-07-02T00:06:10;25.67;;;7.35;;
41719;SDS011;27405;53.316;-6.294;2023-07-02T00:08:35;31.33;;;6.72;;
41719;SDS011;27405;53.316;-6.294;2023-07-02T00:11:01;25.40;;;6.10;;
41719;SDS011;27405;53.316;-6.294;2023-07-02T00:13:26;22.38;;;6.22;;
41719;SDS011;27405;53.316;-6.294;2023-07-02T00:15:52;26.67;;;6.60;;
41719;SDS011;27405;53.316;-6.294;2023-07-02T00:18:18;24.30;;;6.05;;
41719;SDS011;27405;53.316;-6.294;2023-07-02T00:20:43;24.67;;;6.13;;
41719;SDS011;27405;53.316;-6.294;2023-07-02T00:23:09;33.05;;;6.93;;
41719;SDS011;27405;53.316;-6.294;2023-07-02T00:25:35;27.55;;;5.57;;
41719;SDS011;27405;53.316;-6.294;2023-07-02T00:28:01;23.67;;;5.97;;
41719;SDS011;27405;53.316;-6.294;2023-07-02T00:30:27;26.88;;;6.18;;
41719;SDS011;27405;53.316;-6.294;2023-07-02T00:32:53;25.00;;;6.25;;
41719;SDS011;27405;53.316;-6.294;2023-07-02T00:35:19;25.25;;;5.63;;
41719;SDS011;27405;53.316;-6.294;2023-07-02T00:37:44;25.73;;;6.07;;
41719;SDS011;27405;53.316;-6.294;2023-07-02T00:40:10;27.30;;;6.15;;
41719;SDS011;27405;53.316;-6.294;2023-07-02T00:42:36;22.88;;;6.05;;
41719;SDS011;27405;53.316;-6.294;2023-07-02T00:45:02;22.55;;;5.93;;
41719;SDS011;27405;53.316;-6.294;2023-07-02T00:47:28;25.70;;;6.28;;
41719;SDS011;27405;53.316;-6.294;2023-07-02T00:49:59;22.42;;;6.15;;
41719;SDS011;27405;53.316;-6.294;2023-07-02T00:52:25;23.98;;;6.43;;
41719;SDS011;27405;53.316;-6.294;2023-07-02T00:54:51;20.50;;;6.50;;
41719;SDS011;27405;53.316;-6.294;2023-07-02T00:57:17;29.15;;;7.22;;
41719;SDS011;27405;53.316;-6.294;2023-07-02T00:59:43;26.33;;;6.45;;
41719;SDS011;27405;53.316;-6.294;2023-07-02T01:02:08;21.30;;;6.00;;
41719;SDS011;27405;53.316;-6.294;2023-07-02T01:04:35;19.55;;;5.65;;
41719;SDS011;27405;53.316;-6.294;2023-07-02T01:07:02;22.88;;;6.53;;
41719;SDS011;27405;53.316;-6.294;2023-07-02T01:09:33;25.13;;;5.93;;
41719;SDS011;27405;53.316;-6.294;2023-07-02T01:12:00;21.58;;;5.80;;
41719;SDS011;27405;53.316;-6.294;2023-07-02T01:14:33;18.92;;;6.15;;
41719;SDS011;27405;53.316;-6.294;2023-07-02T01:17:06;27.05;;;5.93;;
41719;SDS011;27405;53.316;-6.294;2023-07-02T01:22:24;25.50;;;6.22;;
41719;SDS011;27405;53.316;-6.294;2023-07-02T01:24:51;21.52;;;5.40;;
41719;SDS011;27405;53.316;-6.294;2023-07-02T01:27:18;21.52;;;5.93;;
41719;SDS011;27405;53.316;-6.294;2023-07-02T01:29:44;26.65;;;6.47;;
41719;SDS011;27405;53.316;-6.294;2023-07-02T01:32:11;26.23;;;6.45;;
41719;SDS011;27405;53.316;-6.294;2023-07-02T01:34:40;23.17;;;5.38;;
41719;SDS011;27405;53.316;-6.294;2023-07-02T01:37:05;21.73;;;5.32;;
41719;SDS011;27405;53.316;-6.294;2023-07-02T01:39:33;23.25;;;5.65;;
41719;SDS011;27405;53.316;-6.294;2023-07-02T01:42:11;24.00;;;5.60;;
41719;SDS011;27405;53.316;-6.294;2023-07-02T01:44:41;27.48;;;5.97;;
41719;SDS011;27405;53.316;-6.294;2023-07-02T01:47:08;25.83;;;5.50;;
41719;SDS011;27405;53.316;-6.294;2023-07-02T01:49:34;23.42;;;5.18;;
41719;SDS011;27405;53.316;-6.294;2023-07-02T01:52:01;23.40;;;5.72;;
41719;SDS011;27405;53.316;-6.294;2023-07-02T01:54:27;21.60;;;5.28;;
41719;SDS011;27405;53.316;-6.294;2023-07-02T01:56:53;24.02;;;5.95;;
41719;SDS011;27405;53.316;-6.294;2023-07-02T01:59:20;29.45;;;5.90;;
41719;SDS011;27405;53.316;-6.294;2023-07-02T02:01:45;24.52;;;5.28;;
41719;SDS011;27405;53.316;-6.294;2023-07-02T02:04:11;21.85;;;4.80;;
41719;SDS011;27405;53.316;-6.294;2023-07-02T02:06:38;23.52;;;5.57;;
41719;SDS011;27405;53.316;-6.294;2023-07-02T02:09:05;20.92;;;4.90;;
41719;SDS011;27405;53.316;-6.294;2023-07-02T02:11:31;24.02;;;4.70;;
41719;SDS011;27405;53.316;-6.294;2023-07-02T02:13:58;21.15;;;4.53;;
41719;SDS011;27405;53.316;-6.294;2023-07-02T02:16:26;21.77;;;4.93;;
41719;SDS011;27405;53.316;-6.294;2023-07-02T02:18:52;27.65;;;5.55;;
41719;SDS011;27405;53.316;-6.294;2023-07-02T02:21:18;23.52;;;5.20;;
41719;SDS011;27405;53.316;-6.294;2023-07-02T02:23:45;24.92;;;4.45;;
41719;SDS011;27405;53.316;-6.294;2023-07-02T02:26:10;25.70;;;5.15;;
41719;SDS011;27405;53.316;-6.294;2023-07-02T02:28:36;25.15;;;4.97;;
41719;SDS011;27405;53.316;-6.294;2023-07-02T02:31:02;24.75;;;5.60;;
41719;SDS011;27405;53.316;-6.294;2023-07-02T02:33:28;20.23;;;4.80;;
41719;SDS011;27405;53.316;-6.294;2023-07-02T02:35:54;24.73;;;5.47;;
41719;SDS011;27405;53.316;-6.294;2023-07-02T02:38:20;22.20;;;4.88;;
41719;SDS011;27405;53.316;-6.294;2023-07-02T02:40:46;22.58;;;5.50;;
41719;SDS011;27405;53.316;-6.294;2023-07-02T02:43:11;20.80;;;4.95;;
41719;SDS011;27405;53.316;-6.294;2023-07-02T02:45:38;21.38;;;5.05;;
41719;SDS011;27405;53.316;-6.294;2023-07-02T02:48:04;26.88;;;4.93;;
41719;SDS011;27405;53.316;-6.294;2023-07-02T02:50:29;27.40;;;5.13;;
41719;SDS011;27405;53.316;-6.294;2023-07-02T02:52:55;22.55;;;4.70;;
41719;SDS011;27405;53.316;-6.294;2023-07-02T02:55:21;25.67;;;5.32;;
41719;SDS011;27405;53.316;-6.294;2023-07-02T02:57:46;26.35;;;5.40;;
41719;SDS011;27405;53.316;-6.294;2023-07-02T03:00:12;26.27;;;4.80;;
41719;SDS011;27405;53.316;-6.294;2023-07-02T03:02:38;24.67;;;4.97;;
41719;SDS011;27405;53.316;-6.294;2023-07-02T03:05:04;21.48;;;4.82;;
41719;SDS011;27405;53.316;-6.294;2023-07-02T03:07:31;28.50;;;4.82;;
41719;SDS011;27405;53.316;-6.294;2023-07-02T03:09:57;21.90;;;5.03;;
41719;SDS011;27405;53.316;-6.294;2023-07-02T03:12:24;26.13;;;5.32;;
41719;SDS011;27405;53.316;-6.294;2023-07-02T03:14:50;23.77;;;4.55;;
41719;SDS011;27405;53.316;-6.294;2023-07-02T03:17:19;24.33;;;4.82;;
41719;SDS011;27405;53.316;-6.294;2023-07-02T03:19:45;24.60;;;4.70;;
41719;SDS011;27405;53.316;-6.294;2023-07-02T03:22:11;24.63;;;4.40;;
41719;SDS011;27405;53.316;-6.294;2023-07-02T03:24:37;24.10;;;5.15;;
41719;SDS011;27405;53.316;-6.294;2023-07-02T03:27:03;18.40;;;4.57;;
41719;SDS011;27405;53.316;-6.294;2023-07-02T03:29:29;22.42;;;4.75;;
41719;SDS011;27405;53.316;-6.294;2023-07-02T03:31:54;26.08;;;4.32;;
41719;SDS011;27405;53.316;-6.294;2023-07-02T03:34:20;24.08;;;5.03;;
41719;SDS011;27405;53.316;-6.294;2023-07-02T03:36:47;23.85;;;5.00;;
41719;SDS011;27405;53.316;-6.294;2023-07-02T03:39:13;23.63;;;4.57;;
41719;SDS011;27405;53.316;-6.294;2023-07-02T03:41:39;26.35;;;5.03;;
41719;SDS011;27405;53.316;-6.294;2023-07-02T03:44:04;22.30;;;4.55;;
41719;SDS011;27405;53.316;-6.294;2023-07-02T03:46:30;22.85;;;4.55;;
41719;SDS011;27405;53.316;-6.294;2023-07-02T03:48:56;21.50;;;5.07;;
41719;SDS011;27405;53.316;-6.294;2023-07-02T03:51:22;23.00;;;4.78;;
41719;SDS011;27405;53.316;-6.294;2023-07-02T03:53:47;23.95;;;4.32;;
41719;SDS011;27405;53.316;-6.294;2023-07-02T03:56:13;20.65;;;4.88;;
41719;SDS011;27405;53.316;-6.294;2023-07-02T03:58:39;25.25;;;4.40;;
41719;SDS011;27405;53.316;-6.294;2023-07-02T04:01:05;20.52;;;4.40;;
41719;SDS011;27405;53.316;-6.294;2023-07-02T04:03:31;19.55;;;4.20;;
41719;SDS011;27405;53.316;-6.294;2023-07-02T04:05:57;24.92;;;4.65;;
41719;SDS011;27405;53.316;-6.294;2023-07-02T04:08:22;22.58;;;4.65;;
41719;SDS011;27405;53.316;-6.294;2023-07-02T04:10:50;24.10;;;4.80;;
41719;SDS011;27405;53.316;-6.294;2023-07-02T04:13:15;21.38;;;4.35;;
41719;SDS011;27405;53.316;-6.294;2023-07-02T04:15:41;18.13;;;3.70;;
41719;SDS011;27405;53.316;-6.294;2023-07-02T04:18:07;21.58;;;4.30;;
41719;SDS011;27405;53.316;-6.294;2023-07-02T04:20:33;18.20;;;4.13;;
41719;SDS011;27405;53.316;-6.294;2023-07-02T04:22:59;20.48;;;4.10;;
41719;SDS011;27405;53.316;-6.294;2023-07-02T04:25:24;22.20;;;4.75;;
41719;SDS011;27405;53.316;-6.294;2023-07-02T04:27:50;24.13;;;4.50;;
41719;SDS011;27405;53.316;-6.294;2023-07-02T04:30:21;23.92;;;4.13;;
41719;SDS011;27405;53.316;-6.294;2023-07-02T04:32:47;25.60;;;4.30;;
41719;SDS011;27405;53.316;-6.294;2023-07-02T04:35:12;20.27;;;4.68;;
41719;SDS011;27405;53.316;-6.294;2023-07-02T04:37:38;24.63;;;5.22;;
41719;SDS011;27405;53.316;-6.294;2023-07-02T04:40:04;26.35;;;4.43;;
41719;SDS011;27405;53.316;-6.294;2023-07-02T04:42:37;21.83;;;4.72;;
41719;SDS011;27405;53.316;-6.294;2023-07-02T04:45:04;23.75;;;4.20;;
41719;SDS011;27405;53.316;-6.294;2023-07-02T04:47:30;24.85;;;4.90;;
41719;SDS011;27405;53.316;-6.294;2023-07-02T04:49:56;24.95;;;5.00;;
41719;SDS011;27405;53.316;-6.294;2023-07-02T04:52:22;24.02;;;4.63;;
41719;SDS011;27405;53.316;-6.294;2023-07-02T04:54:48;31.88;;;5.15;;
41719;SDS011;27405;53.316;-6.294;2023-07-02T04:57:14;24.17;;;4.28;;
41719;SDS011;27405;53.316;-6.294;2023-07-02T04:59:43;23.95;;;4.53;;
41719;SDS011;27405;53.316;-6.294;2023-07-02T05:02:09;21.05;;;4.63;;
41719;SDS011;27405;53.316;-6.294;2023-07-02T05:04:35;23.65;;;5.32;;
41719;SDS011;27405;53.316;-6.294;2023-07-02T05:07:00;25.45;;;5.15;;
41719;SDS011;27405;53.316;-6.294;2023-07-02T05:09:26;23.23;;;4.22;;
41719;SDS011;27405;53.316;-6.294;2023-07-02T05:11:52;24.58;;;4.57;;
41719;SDS011;27405;53.316;-6.294;2023-07-02T05:14:17;22.13;;;4.43;;
41719;SDS011;27405;53.316;-6.294;2023-07-02T05:16:43;21.48;;;4.40;;
41719;SDS011;27405;53.316;-6.294;2023-07-02T05:19:09;25.50;;;4.97;;
41719;SDS011;27405;53.316;-6.294;2023-07-02T05:21:35;22.85;;;4.22;;
41719;SDS011;27405;53.316;-6.294;2023-07-02T05:24:00;25.55;;;4.63;;
41719;SDS011;27405;53.316;-6.294;2023-07-02T05:26:26;22.65;;;4.45;;
41719;SDS011;27405;53.316;-6.294;2023-07-02T05:28:52;20.80;;;4.13;;
41719;SDS011;27405;53.316;-6.294;2023-07-02T05:31:18;24.50;;;4.82;;
41719;SDS011;27405;53.316;-6.294;2023-07-02T05:33:44;24.48;;;4.38;;
41719;SDS011;27405;53.316;-6.294;2023-07-02T05:36:10;21.05;;;4.97;;
41719;SDS011;27405;53.316;-6.294;2023-07-02T05:38:35;22.27;;;4.57;;
41719;SDS011;27405;53.316;-6.294;2023-07-02T05:41:02;26.45;;;5.40;;
41719;SDS011;27405;53.316;-6.294;2023-07-02T05:43:28;21.70;;;4.40;;
41719;SDS011;27405;53.316;-6.294;2023-07-02T05:45:54;22.90;;;4.90;;
41719;SDS011;27405;53.316;-6.294;2023-07-02T05:48:19;23.85;;;4.57;;
41719;SDS011;27405;53.316;-6.294;2023-07-02T05:50:45;19.98;;;4.05;;
41719;SDS011;27405;53.316;-6.294;2023-07-02T05:53:11;24.23;;;4.38;;
41719;SDS011;27405;53.316;-6.294;2023-07-02T05:55:37;20.02;;;4.05;;
41719;SDS011;27405;53.316;-6.294;2023-07-02T05:58:02;23.30;;;4.32;;
41719;SDS011;27405;53.316;-6.294;2023-07-02T06:00:28;17.20;;;4.20;;
41719;SDS011;27405;53.316;-6.294;2023-07-02T06:02:54;26.45;;;4.47;;
41719;SDS011;27405;53.316;-6.294;2023-07-02T06:05:20;21.85;;;4.38;;
41719;SDS011;27405;53.316;-6.294;2023-07-02T06:07:46;22.08;;;4.47;;
41719;SDS011;27405;53.316;-6.294;2023-07-02T06:10:11;20.83;;;4.00;;
41719;SDS011;27405;53.316;-6.294;2023-07-02T06:12:37;20.58;;;4.63;;
41719;SDS011;27405;53.316;-6.294;2023-07-02T06:15:03;19.02;;;3.88;;
41719;SDS011;27405;53.316;-6.294;2023-07-02T06:17:30;21.55;;;4.32;;
41719;SDS011;27405;53.316;-6.294;2023-07-02T06:19:58;20.15;;;4.35;;
41719;SDS011;27405;53.316;-6.294;2023-07-02T06:22:24;25.48;;;4.60;;
41719;SDS011;27405;53.316;-6.294;2023-07-02T06:24:49;21.40;;;4.03;;
41719;SDS011;27405;53.316;-6.294;2023-07-02T06:27:15;22.38;;;4.05;;
41719;SDS011;27405;53.316;-6.294;2023-07-02T06:29:41;22.42;;;4.60;;
41719;SDS011;27405;53.316;-6.294;2023-07-02T06:32:06;20.02;;;3.75;;
41719;SDS011;27405;53.316;-6.294;2023-07-02T06:34:32;18.73;;;4.05;;
41719;SDS011;27405;53.316;-6.294;2023-07-02T06:36:58;23.83;;;4.35;;
41719;SDS011;27405;53.316;-6.294;2023-07-02T06:39:23;20.67;;;3.65;;
41719;SDS011;27405;53.316;-6.294;2023-07-02T06:41:49;21.52;;;4.53;;
41719;SDS011;27405;53.316;-6.294;2023-07-02T06:44:15;18.17;;;3.58;;
41719;SDS011;27405;53.316;-6.294;2023-07-02T06:46:40;17.73;;;3.45;;
41719;SDS011;27405;53.316;-6.294;2023-07-02T06:49:06;19.35;;;3.83;;
41719;SDS011;27405;53.316;-6.294;2023-07-02T06:51:32;18.25;;;4.07;;
41719;SDS011;27405;53.316;-6.294;2023-07-02T06:53:59;22.98;;;3.78;;
41719;SDS011;27405;53.316;-6.294;2023-07-02T06:56:25;25.15;;;4.10;;
41719;SDS011;27405;53.316;-6.294;2023-07-02T06:58:50;21.02;;;4.32;;
41719;SDS011;27405;53.316;-6.294;2023-07-02T07:01:16;23.73;;;4.22;;
41719;SDS011;27405;53.316;-6.294;2023-07-02T07:03:41;20.33;;;3.97;;
41719;SDS011;27405;53.316;-6.294;2023-07-02T07:06:07;17.55;;;3.70;;
41719;SDS011;27405;53.316;-6.294;2023-07-02T07:08:33;21.35;;;3.80;;
41719;SDS011;27405;53.316;-6.294;2023-07-02T07:11:02;20.20;;;3.53;;
41719;SDS011;27405;53.316;-6.294;2023-07-02T07:13:28;22.45;;;4.00;;
41719;SDS011;27405;53.316;-6.294;2023-07-02T07:15:54;19.63;;;3.80;;
41719;SDS011;27405;53.316;-6.294;2023-07-02T07:18:19;19.58;;;3.25;;
41719;SDS011;27405;53.316;-6.294;2023-07-02T07:20:45;20.52;;;4.00;;
41719;SDS011;27405;53.316;-6.294;2023-07-02T07:23:11;16.90;;;3.53;;
41719;SDS011;27405;53.316;-6.294;2023-07-02T07:25:36;16.67;;;3.67;;
41719;SDS011;27405;53.316;-6.294;2023-07-02T07:28:02;21.83;;;3.75;;
41719;SDS011;27405;53.316;-6.294;2023-07-02T07:30:28;18.77;;;3.70;;
41719;SDS011;27405;53.316;-6.294;2023-07-02T07:32:53;15.95;;;3.30;;
41719;SDS011;27405;53.316;-6.294;2023-07-02T07:35:20;19.95;;;4.05;;
41719;SDS011;27405;53.316;-6.294;2023-07-02T07:37:46;22.90;;;4.05;;
41719;SDS011;27405;53.316;-6.294;2023-07-02T07:40:13;19.95;;;4.10;;
41719;SDS011;27405;53.316;-6.294;2023-07-02T07:42:40;22.20;;;3.80;;
41719;SDS011;27405;53.316;-6.294;2023-07-02T07:45:07;20.02;;;3.72;;
41719;SDS011;27405;53.316;-6.294;2023-07-02T07:47:34;23.90;;;3.75;;
41719;SDS011;27405;53.316;-6.294;2023-07-02T07:49:59;18.25;;;3.25;;
41719;SDS011;27405;53.316;-6.294;2023-07-02T07:52:25;21.58;;;4.35;;
41719;SDS011;27405;53.316;-6.294;2023-07-02T07:54:50;23.38;;;5.20;;
41719;SDS011;27405;53.316;-6.294;2023-07-02T07:57:16;18.20;;;3.40;;
41719;SDS011;27405;53.316;-6.294;2023-07-02T07:59:42;18.27;;;3.70;;
41719;SDS011;27405;53.316;-6.294;2023-07-02T08:02:07;18.42;;;3.45;;
41719;SDS011;27405;53.316;-6.294;2023-07-02T08:04:34;22.08;;;3.92;;
41719;SDS011;27405;53.316;-6.294;2023-07-02T08:06:59;20.20;;;3.90;;
41719;SDS011;27405;53.316;-6.294;2023-07-02T08:09:25;19.08;;;3.55;;
41719;SDS011;27405;53.316;-6.294;2023-07-02T08:11:51;21.42;;;4.25;;
41719;SDS011;27405;53.316;-6.294;2023-07-02T08:14:17;20.17;;;3.40;;
41719;SDS011;27405;53.316;-6.294;2023-07-02T08:16:44;19.00;;;3.88;;
41719;SDS011;27405;53.316;-6.294;2023-07-02T08:19:10;17.63;;;3.25;;
41719;SDS011;27405;53.316;-6.294;2023-07-02T08:21:35;24.98;;;3.67;;
41719;SDS011;27405;53.316;-6.294;2023-07-02T08:24:02;19.60;;;3.83;;
41719;SDS011;27405;53.316;-6.294;2023-07-02T08:26:28;16.30;;;3.58;;
41719;SDS011;27405;53.316;-6.294;2023-07-02T08:28:54;19.73;;;3.70;;
41719;SDS011;27405;53.316;-6.294;2023-07-02T08:31:20;21.42;;;3.72;;
41719;SDS011;27405;53.316;-6.294;2023-07-02T08:33:45;18.80;;;3.45;;
41719;SDS011;27405;53.316;-6.294;2023-07-02T08:36:11;15.60;;;3.42;;
41719;SDS011;27405;53.316;-6.294;2023-07-02T08:38:38;20.63;;;3.28;;
41719;SDS011;27405;53.316;-6.294;2023-07-02T08:41:07;20.23;;;3.70;;
41719;SDS011;27405;53.316;-6.294;2023-07-02T08:43:32;21.60;;;3.95;;
41719;SDS011;27405;53.316;-6.294;2023-07-02T08:46:00;19.00;;;3.90;;
41719;SDS011;27405;53.316;-6.294;2023-07-02T08:48:26;21.92;;;3.55;;
41719;SDS011;27405;53.316;-6.294;2023-07-02T08:50:54;17.13;;;3.50;;
41719;SDS011;27405;53.316;-6.294;2023-07-02T08:53:20;17.40;;;3.08;;
41719;SDS011;27405;53.316;-6.294;2023-07-02T08:55:50;18.75;;;3.90;;
41719;SDS011;27405;53.316;-6.294;2023-07-02T08:58:16;19.52;;;3.70;;
41719;SDS011;27405;53.316;-6.294;2023-07-02T09:01:03;20.58;;;3.58;;
41719;SDS011;27405;53.316;-6.294;2023-07-02T09:03:32;14.20;;;3.13;;
41719;SDS011;27405;53.316;-6.294;2023-07-02T09:05:58;21.50;;;4.03;;
41719;SDS011;27405;53.316;-6.294;2023-07-02T09:08:24;13.75;;;3.17;;
41719;SDS011;27405;53.316;-6.294;2023-07-02T09:10:50;13.75;;;2.95;;
41719;SDS011;27405;53.316;-6.294;2023-07-02T09:13:16;16.95;;;3.38;;
41719;SDS011;27405;53.316;-6.294;2023-07-02T09:15:41;14.15;;;2.92;;
41719;SDS011;27405;53.316;-6.294;2023-07-02T09:18:20;13.90;;;2.85;;
41719;SDS011;27405;53.316;-6.294;2023-07-02T09:20:50;17.20;;;3.20;;
41719;SDS011;27405;53.316;-6.294;2023-07-02T09:23:16;17.10;;;3.30;;
41719;SDS011;27405;53.316;-6.294;2023-07-02T09:25:42;19.05;;;3.40;;
41719;SDS011;27405;53.316;-6.294;2023-07-02T09:28:41;14.35;;;2.58;;
41719;SDS011;27405;53.316;-6.294;2023-07-02T09:30:59;15.93;;;3.00;;
41719;SDS011;27405;53.316;-6.294;2023-07-02T09:33:25;14.15;;;2.70;;
41719;SDS011;27405;53.316;-6.294;2023-07-02T09:35:52;13.43;;;2.97;;
41719;SDS011;27405;53.316;-6.294;2023-07-02T09:38:19;12.55;;;2.67;;
41719;SDS011;27405;53.316;-6.294;2023-07-02T09:40:46;13.13;;;3.50;;
41719;SDS011;27405;53.316;-6.294;2023-07-02T09:43:17;9.48;;;2.50;;
41719;SDS011;27405;53.316;-6.294;2023-07-02T09:45:44;11.00;;;2.80;;
41719;SDS011;27405;53.316;-6.294;2023-07-02T09:48:12;11.40;;;2.60;;
41719;SDS011;27405;53.316;-6.294;2023-07-02T09:50:45;17.40;;;2.83;;
41719;SDS011;27405;53.316;-6.294;2023-07-02T09:53:12;12.52;;;2.28;;
41719;SDS011;27405;53.316;-6.294;2023-07-02T09:55:38;10.23;;;2.30;;
41719;SDS011;27405;53.316;-6.294;2023-07-02T09:58:05;13.18;;;2.75;;
41719;SDS011;27405;53.316;-6.294;2023-07-02T10:00:31;13.60;;;3.00;;
41719;SDS011;27405;53.316;-6.294;2023-07-02T10:02:57;11.00;;;2.13;;
41719;SDS011;27405;53.316;-6.294;2023-07-02T10:05:26;12.15;;;2.67;;
41719;SDS011;27405;53.316;-6.294;2023-07-02T10:08:11;14.10;;;2.72;;
41719;SDS011;27405;53.316;-6.294;2023-07-02T10:10:38;14.57;;;2.63;;
41719;SDS011;27405;53.316;-6.294;2023-07-02T10:13:04;13.60;;;2.65;;
41719;SDS011;27405;53.316;-6.294;2023-07-02T10:15:30;13.38;;;2.53;;
41719;SDS011;27405;53.316;-6.294;2023-07-02T10:17:59;12.73;;;2.80;;
41719;SDS011;27405;53.316;-6.294;2023-07-02T10:20:40;17.08;;;2.85;;
41719;SDS011;27405;53.316;-6.294;2023-07-02T10:23:07;13.45;;;2.60;;
41719;SDS011;27405;53.316;-6.294;2023-07-02T10:25:34;9.38;;;2.25;;
41719;SDS011;27405;53.316;-6.294;2023-07-02T10:28:14;13.82;;;2.47;;
41719;SDS011;27405;53.316;-6.294;2023-07-02T10:30:42;13.43;;;2.70;;
41719;SDS011;27405;53.316;-6.294;2023-07-02T10:33:08;10.88;;;2.15;;
41719;SDS011;27405;53.316;-6.294;2023-07-02T10:35:35;15.02;;;3.03;;
41719;SDS011;27405;53.316;-6.294;2023-07-02T10:38:01;10.90;;;2.53;;
41719;SDS011;27405;53.316;-6.294;2023-07-02T10:40:27;10.75;;;2.15;;
41719;SDS011;27405;53.316;-6.294;2023-07-02T10:42:54;12.73;;;2.33;;
41719;SDS011;27405;53.316;-6.294;2023-07-02T10:45:31;14.75;;;2.35;;
41719;SDS011;27405;53.316;-6.294;2023-07-02T10:47:57;12.00;;;2.70;;
41719;SDS011;27405;53.316;-6.294;2023-07-02T10:50:24;9.15;;;2.35;;
41719;SDS011;27405;53.316;-6.294;2023-07-02T10:52:50;10.07;;;2.17;;
41719;SDS011;27405;53.316;-6.294;2023-07-02T10:55:25;11.55;;;2.25;;
41719;SDS011;27405;53.316;-6.294;2023-07-02T10:58:09;12.07;;;2.33;;
41719;SDS011;27405;53.316;-6.294;2023-07-02T11:00:45;11.77;;;2.50;;
41719;SDS011;27405;53.316;-6.294;2023-07-02T11:03:19;10.23;;;2.05;;
41719;SDS011;27405;53.316;-6.294;2023-07-02T11:05:49;10.93;;;2.33;;
41719;SDS011;27405;53.316;-6.294;2023-07-02T11:08:15;10.95;;;2.10;;
41719;SDS011;27405;53.316;-6.294;2023-07-02T11:10:41;9.73;;;2.50;;
41719;SDS011;27405;53.316;-6.294;2023-07-02T11:13:10;14.23;;;2.45;;
41719;SDS011;27405;53.316;-6.294;2023-07-02T11:15:43;12.43;;;2.65;;
41719;SDS011;27405;53.316;-6.294;2023-07-02T11:18:13;10.55;;;2.50;;
41719;SDS011;27405;53.316;-6.294;2023-07-02T11:20:40;12.52;;;2.53;;
41719;SDS011;27405;53.316;-6.294;2023-07-02T11:23:17;13.27;;;2.28;;
41719;SDS011;27405;53.316;-6.294;2023-07-02T11:25:53;10.60;;;2.15;;
41719;SDS011;27405;53.316;-6.294;2023-07-02T11:28:23;10.82;;;2.55;;
41719;SDS011;27405;53.316;-6.294;2023-07-02T11:30:49;9.93;;;2.22;;
41719;SDS011;27405;53.316;-6.294;2023-07-02T11:33:15;12.85;;;2.33;;
41719;SDS011;27405;53.316;-6.294;2023-07-02T11:35:41;8.70;;;2.40;;
41719;SDS011;27405;53.316;-6.294;2023-07-02T11:38:08;11.43;;;2.08;;
41719;SDS011;27405;53.316;-6.294;2023-07-02T11:40:37;12.65;;;3.03;;
41719;SDS011;27405;53.316;-6.294;2023-07-02T11:43:03;11.45;;;2.47;;
41719;SDS011;27405;53.316;-6.294;2023-07-02T11:45:29;11.43;;;2.22;;
41719;SDS011;27405;53.316;-6.294;2023-07-02T11:47:54;10.77;;;1.90;;
41719;SDS011;27405;53.316;-6.294;2023-07-02T11:50:20;9.75;;;2.50;;
41719;SDS011;27405;53.316;-6.294;2023-07-02T11:52:46;10.50;;;2.08;;
41719;SDS011;27405;53.316;-6.294;2023-07-02T11:55:12;15.13;;;2.50;;
41719;SDS011;27405;53.316;-6.294;2023-07-02T11:57:37;11.90;;;2.63;;
41719;SDS011;27405;53.316;-6.294;2023-07-02T12:00:03;9.48;;;2.17;;
41719;SDS011;27405;53.316;-6.294;2023-07-02T12:02:29;8.93;;;1.95;;
41719;SDS011;27405;53.316;-6.294;2023-07-02T12:04:55;14.63;;;2.60;;
41719;SDS011;27405;53.316;-6.294;2023-07-02T12:07:21;10.82;;;2.40;;
41719;SDS011;27405;53.316;-6.294;2023-07-02T12:09:47;10.52;;;2.03;;
41719;SDS011;27405;53.316;-6.294;2023-07-02T12:12:12;14.02;;;2.70;;
41719;SDS011;27405;53.316;-6.294;2023-07-02T12:14:38;10.65;;;1.90;;
41719;SDS011;27405;53.316;-6.294;2023-07-02T12:17:08;9.73;;;2.03;;
41719;SDS011;27405;53.316;-6.294;2023-07-02T12:19:34;11.82;;;2.10;;
41719;SDS011;27405;53.316;-6.294;2023-07-02T12:21:59;10.40;;;2.30;;
41719;SDS011;27405;53.316;-6.294;2023-07-02T12:24:25;6.97;;;2.03;;
41719;SDS011;27405;53.316;-6.294;2023-07-02T12:26:51;11.40;;;2.15;;
41719;SDS011;27405;53.316;-6.294;2023-07-02T12:29:16;9.30;;;2.45;;
41719;SDS011;27405;53.316;-6.294;2023-07-02T12:31:42;11.13;;;2.17;;
41719;SDS011;27405;53.316;-6.294;2023-07-02T12:34:07;10.20;;;2.30;;
41719;SDS011;27405;53.316;-6.294;2023-07-02T12:36:33;11.63;;;1.90;;
41719;SDS011;27405;53.316;-6.294;2023-07-02T12:38:59;10.45;;;2.35;;
41719;SDS011;27405;53.316;-6.294;2023-07-02T12:41:24;5.75;;;1.42;;
41719;SDS011;27405;53.316;-6.294;2023-07-02T12:43:50;9.45;;;1.92;;
41719;SDS011;27405;53.316;-6.294;2023-07-02T12:46:16;11.52;;;1.88;;
41719;SDS011;27405;53.316;-6.294;2023-07-02T12:48:41;9.40;;;1.98;;
41719;SDS011;27405;53.316;-6.294;2023-07-02T12:51:07;9.55;;;1.88;;
41719;SDS011;27405;53.316;-6.294;2023-07-02T12:53:32;10.57;;;1.20;;
41719;SDS011;27405;53.316;-6.294;2023-07-02T12:55:58;6.70;;;1.70;;
41719;SDS011;27405;53.316;-6.294;2023-07-02T12:58:24;7.35;;;1.48;;
41719;SDS011;27405;53.316;-6.294;2023-07-02T13:00:49;5.80;;;1.60;;
41719;SDS011;27405;53.316;-6.294;2023-07-02T13:03:16;10.25;;;2.30;;
41719;SDS011;27405;53.316;-6.294;2023-07-02T13:05:43;8.13;;;1.43;;
41719;SDS011;27405;53.316;-6.294;2023-07-02T13:08:09;9.77;;;2.50;;
41719;SDS011;27405;53.316;-6.294;2023-07-02T13:10:35;6.70;;;1.63;;
41719;SDS011;27405;53.316;-6.294;2023-07-02T13:13:02;5.22;;;1.80;;
41719;SDS011;27405;53.316;-6.294;2023-07-02T13:15:27;8.25;;;1.63;;
41719;SDS011;27405;53.316;-6.294;2023-07-02T13:17:53;6.68;;;1.60;;
41719;SDS011;27405;53.316;-6.294;2023-07-02T13:20:19;9.23;;;1.50;;
41719;SDS011;27405;53.316;-6.294;2023-07-02T13:22:44;5.82;;;1.73;;
41719;SDS011;27405;53.316;-6.294;2023-07-02T13:25:10;13.20;;;1.90;;
41719;SDS011;27405;53.316;-6.294;2023-07-02T13:27:36;6.65;;;1.95;;
41719;SDS011;27405;53.316;-6.294;2023-07-02T13:30:02;7.97;;;1.55;;
41719;SDS011;27405;53.316;-6.294;2023-07-02T13:32:28;7.45;;;1.70;;
41719;SDS011;27405;53.316;-6.294;2023-07-02T13:34:53;7.85;;;1.88;;
41719;SDS011;27405;53.316;-6.294;2023-07-02T13:37:19;7.88;;;1.77;;
41719;SDS011;27405;53.316;-6.294;2023-07-02T13:39:46;9.20;;;1.73;;
41719;SDS011;27405;53.316;-6.294;2023-07-02T13:42:12;11.05;;;2.20;;
41719;SDS011;27405;53.316;-6.294;2023-07-02T13:44:37;7.30;;;2.15;;
41719;SDS011;27405;53.316;-6.294;2023-07-02T13:47:03;9.13;;;2.25;;
41719;SDS011;27405;53.316;-6.294;2023-07-02T13:49:29;12.75;;;2.20;;
41719;SDS011;27405;53.316;-6.294;2023-07-02T13:51:56;6.60;;;1.70;;
41719;SDS011;27405;53.316;-6.294;2023-07-02T13:54:21;10.05;;;1.90;;
41719;SDS011;27405;53.316;-6.294;2023-07-02T13:56:47;8.05;;;1.67;;
41719;SDS011;27405;53.316;-6.294;2023-07-02T13:59:13;6.05;;;1.80;;
41719;SDS011;27405;53.316;-6.294;2023-07-02T14:01:40;6.63;;;1.95;;
41719;SDS011;27405;53.316;-6.294;2023-07-02T14:04:06;9.52;;;2.10;;
41719;SDS011;27405;53.316;-6.294;2023-07-02T14:06:32;8.52;;;1.92;;
41719;SDS011;27405;53.316;-6.294;2023-07-02T14:08:58;10.77;;;2.05;;
41719;SDS011;27405;53.316;-6.294;2023-07-02T14:11:24;8.02;;;1.80;;
41719;SDS011;27405;53.316;-6.294;2023-07-02T14:13:50;8.90;;;1.88;;
41719;SDS011;27405;53.316;-6.294;2023-07-02T14:16:16;7.82;;;1.90;;
41719;SDS011;27405;53.316;-6.294;2023-07-02T14:18:42;19.13;;;1.90;;
41719;SDS011;27405;53.316;-6.294;2023-07-02T14:21:08;7.35;;;1.80;;
41719;SDS011;27405;53.316;-6.294;2023-07-02T14:23:34;7.00;;;1.90;;